Swanson Ranch 3, NV

3:47 AM PST en Febrero 19, 2017 (GMT -0800)
Winnemucca Municipal | | Change Station
Aviso en curso: Flood Warning

Alt 4308 ft 40.90 °N, 117.81 °W | Updated 51 minutes ago

Parcialmente nublado
Parcialmente nublado
37 ° F
Sensación térmica 37 ° F
N
0
Viento Variable Viento desde Norte

Hoy
Alta -- | Baja -- ° F
--% Posibilidad de precipitaciones
Ayer
Alta -- | Baja -- ° F
Precip. -- pul
Presión 29.55 pul
Visibilidad 10.0 Millas
Nubes Baja 3400 ft
Punto de rocío 35 ° F
Humedad 93%
Precipitaciones 0.00 pul
Espesor de la nieve No disponible.
6:36 AM 5:30 PM
Cuarto menguante, 44% visible
METAR KWMC 191056Z AUTO 00000KT 10SM FEW034 03/02 A2958 RMK AO2 SLP007 T00280017 $
Presión 29.55 pul
Visibilidad 10.0 Millas
Nubes Baja 3400 ft
Punto de rocío 35 ° F
Humedad 93%
Precipitaciones 0.00 pul
Espesor de la nieve No disponible.
6:36 AM 5:30 PM
Cuarto menguante, 44% visible
METAR KWMC 191056Z AUTO 00000KT 10SM FEW034 03/02 A2958 RMK AO2 SLP007 T00280017 $

Get Your Daily Forecast Email!

Thanks for signing up!

Be on the lookout for a verification email in your inbox.

You'll start receiving the daily forecast at 8 AM.

×

10-Day Weather Forecast

Almanac

Astronomía

Feb. 19, 2017 Salida Puesta
Hora real
Crepúsculo civil
Crepúsculo náutico
Crepúsculo astronómico
Luna
Horas de luz
Horas de luz
Tomorrow will be .
, % of the Moon is Illuminated

Extremos de hoy

Máximos del estado Bajos del estado

Community

WunderPhotos

Upload Photos

1,962,540 ¡fotos cargadas!

WunderBlog® & News

Nearby

Calidad del aire

  Calidad del aire Índice AQ Contaminante
Not available.

Grosos de nieve

Estación Profundido Altura

Actividad de terremotos

Ciudad Distance Mag. Tiempo y dato
Magnitud mínima muestra es 2,5.

Temperaturas de aguas costeras

Lugar Temperatura

Stations

Estaciones meteorológicas cercanas

Ubicación de la estación Temp. Vientos helados Punto de rocío Humedad Viento Precip. Alt Actualizado Tipo
                   

Watches & Warnings

Flood Warning
Issued: 1:22 PM PST Feb. 18, 2017 – National Weather Service

The Flood Warning continues for
the Humboldt River at Battle Mountain.
* Until further notice.
* At 12:15 PM Saturday the stage was 10.6 feet.
* Flood stage is 9.5 feet.
* Moderate flooding is occurring and moderate flooding is forecast.
* Impact... at 10.5 feet... moderate lowland flooding throughout reach,
with a number of rural roads impassable. No homes or basements
flooded. Livestock stranding and miring begins to be a problem.
3400 cfs, about a 5 year flood, 20 percent chance any year.


Lat... Lon 4074 11638 4055 11649 4060 11691 4076 11710 4093 11704